createdAt,value
2018-09-22T00:00:17.128Z,11.29
2018-09-22T00:01:17.050Z,11.42
2018-09-22T00:02:16.974Z,11.78
2018-09-22T00:03:16.893Z,12.00
2018-09-22T00:04:16.817Z,12.08
2018-09-22T00:05:16.737Z,11.98
2018-09-22T00:06:16.659Z,11.79
2018-09-22T00:07:16.581Z,11.71
2018-09-22T00:08:16.504Z,11.71
2018-09-22T00:09:16.423Z,11.67
2018-09-22T00:10:16.346Z,11.67
2018-09-22T00:11:16.268Z,11.51
2018-09-22T00:12:16.339Z,11.50
2018-09-22T00:13:16.110Z,11.35
2018-09-22T00:14:16.034Z,11.18
2018-09-22T00:15:15.955Z,11.20
2018-09-22T00:16:15.876Z,11.32
2018-09-22T00:17:15.798Z,11.08
2018-09-22T00:18:16.019Z,11.08
2018-09-22T00:19:15.640Z,11.08
2018-09-22T00:20:15.563Z,10.93
2018-09-22T00:21:15.485Z,10.85
2018-09-22T00:22:15.406Z,10.75
2018-09-22T00:23:15.328Z,10.75
2018-09-22T00:24:15.349Z,10.71
2018-09-22T00:25:15.171Z,10.71
2018-09-22T00:26:15.094Z,10.56
2018-09-22T00:27:15.126Z,10.67
2018-09-22T00:28:14.936Z,10.74
2018-09-22T00:29:14.856Z,10.75
2018-09-22T00:30:14.877Z,10.78
2018-09-22T00:31:14.699Z,10.40
2018-09-22T00:32:14.621Z,10.36
2018-09-22T00:33:14.543Z,10.37
2018-09-22T00:34:14.465Z,10.33
2018-09-22T00:35:14.386Z,10.36
2018-09-22T00:36:14.457Z,10.41
2018-09-22T00:37:14.227Z,10.55
2018-09-22T00:38:14.152Z,10.56
2018-09-22T00:39:14.070Z,10.58
2018-09-22T00:40:13.992Z,10.56
2018-09-22T00:41:13.915Z,10.59
2018-09-22T00:42:13.936Z,10.60
2018-09-22T00:43:13.755Z,10.59
2018-09-22T00:44:13.678Z,10.67
2018-09-22T00:45:13.599Z,10.60
2018-09-22T00:46:13.518Z,10.55
2018-09-22T00:47:13.439Z,10.43
2018-09-22T00:48:13.467Z,10.47
2018-09-22T00:49:13.281Z,10.55
2018-09-22T00:50:13.203Z,10.34
2018-09-22T00:51:13.124Z,10.26
2018-09-22T00:52:13.046Z,10.26
2018-09-22T00:53:12.965Z,10.36
2018-09-22T00:54:13.037Z,10.23
2018-09-22T00:55:12.811Z,10.31
2018-09-22T00:56:12.731Z,10.39
2018-09-22T00:57:12.650Z,10.39
2018-09-22T00:58:12.572Z,10.37
2018-09-22T00:59:12.493Z,10.43
2018-09-22T01:00:12.471Z,10.58
2018-09-22T01:01:25.139Z,10.47
2018-09-22T01:02:12.262Z,10.47
2018-09-22T01:03:12.179Z,10.87
2018-09-22T01:04:12.100Z,10.87
2018-09-22T01:05:12.020Z,10.80
2018-09-22T01:06:11.992Z,10.73
2018-09-22T01:07:11.862Z,10.71
2018-09-22T01:08:11.784Z,10.73
2018-09-22T01:09:11.706Z,10.69
2018-09-22T01:10:11.626Z,10.60
2018-09-22T01:11:11.548Z,10.62
2018-09-22T01:12:11.517Z,10.63
2018-09-22T01:13:11.388Z,10.71
2018-09-22T01:14:11.310Z,10.66
2018-09-22T01:15:11.231Z,10.74
2018-09-22T01:16:11.153Z,10.84
2018-09-22T01:17:11.074Z,10.96
2018-09-22T01:18:11.094Z,10.95
2018-09-22T01:19:10.916Z,10.93
2018-09-22T01:20:10.837Z,10.85
2018-09-22T01:21:10.759Z,10.83
2018-09-22T01:22:10.678Z,10.83
2018-09-22T01:23:10.601Z,10.84
2018-09-22T01:24:10.679Z,10.74
2018-09-22T01:25:10.442Z,10.65
2018-09-22T01:26:10.363Z,10.58
2018-09-22T01:27:10.285Z,10.43
2018-09-22T01:28:10.211Z,10.41
2018-09-22T01:29:10.127Z,10.22
2018-09-22T01:30:10.148Z,10.25
2018-09-22T01:31:09.973Z,10.26
2018-09-22T01:32:09.890Z,10.23
2018-09-22T01:33:09.814Z,10.34
2018-09-22T01:34:09.731Z,10.43
2018-09-22T01:35:09.652Z,10.39
2018-09-22T01:36:09.674Z,10.53
2018-09-22T01:37:09.494Z,10.49
2018-09-22T01:38:09.414Z,10.78
2018-09-22T01:39:09.337Z,10.92
2018-09-22T01:40:09.258Z,10.96
2018-09-22T01:41:09.177Z,11.02
2018-09-22T01:42:09.250Z,10.99
2018-09-22T01:43:09.021Z,10.92
2018-09-22T01:44:08.942Z,11.00
2018-09-22T01:45:08.861Z,10.95
2018-09-22T01:46:08.786Z,10.92
2018-09-22T01:47:08.708Z,10.96
2018-09-22T01:48:08.725Z,10.85
2018-09-22T01:49:08.545Z,10.92
2018-09-22T01:50:08.467Z,10.71
2018-09-22T01:51:08.387Z,10.56
2018-09-22T01:52:08.309Z,10.63
2018-09-22T01:53:08.230Z,10.59
2018-09-22T01:54:08.252Z,10.55
2018-09-22T01:55:08.073Z,10.55
2018-09-22T01:56:07.994Z,10.55
2018-09-22T01:57:07.913Z,10.56
2018-09-22T01:58:07.836Z,10.56
2018-09-22T01:59:07.757Z,10.71
2018-09-22T02:00:07.776Z,10.59
2018-09-22T02:01:07.597Z,10.59
2018-09-22T02:02:07.517Z,10.63
2018-09-22T02:03:07.439Z,10.73
2018-09-22T02:04:07.361Z,10.78
2018-09-22T02:05:07.280Z,10.92
2018-09-22T02:06:07.351Z,11.00
2018-09-22T02:07:07.125Z,11.18
2018-09-22T02:08:07.044Z,11.32
2018-09-22T02:09:06.964Z,11.32
2018-09-22T02:10:06.885Z,11.38
2018-09-22T02:11:06.808Z,11.43
2018-09-22T02:12:06.828Z,11.38
2018-09-22T02:13:06.648Z,11.35
2018-09-22T02:14:06.570Z,11.32
2018-09-22T02:15:06.492Z,11.46
2018-09-22T02:16:06.413Z,11.38
2018-09-22T02:17:06.334Z,11.46
2018-09-22T02:18:06.355Z,11.46
2018-09-22T02:19:06.176Z,11.53
2018-09-22T02:20:06.098Z,11.50
2018-09-22T02:21:06.021Z,11.54
2018-09-22T02:22:05.941Z,11.53
2018-09-22T02:23:05.861Z,11.49
2018-09-22T02:24:05.883Z,11.32
2018-09-22T02:25:05.704Z,11.18
2018-09-22T02:26:05.624Z,11.16
2018-09-22T02:27:05.546Z,11.17
2018-09-22T02:28:05.469Z,11.26
2018-09-22T02:29:05.387Z,11.34
2018-09-22T02:30:05.461Z,11.35
2018-09-22T02:31:05.231Z,11.42
2018-09-22T02:32:05.153Z,11.39
2018-09-22T02:33:05.073Z,11.41
2018-09-22T02:34:04.995Z,11.36
2018-09-22T02:35:04.915Z,11.41
2018-09-22T02:36:04.888Z,11.42
2018-09-22T02:37:04.759Z,11.46
2018-09-22T02:38:04.684Z,11.35
2018-09-22T02:39:04.603Z,11.56
2018-09-22T02:40:04.523Z,11.65
2018-09-22T02:41:04.444Z,11.71
2018-09-22T02:42:04.465Z,11.71
2018-09-22T02:43:04.289Z,11.71
2018-09-22T02:44:04.209Z,11.68
2018-09-22T02:45:04.133Z,11.78
2018-09-22T02:46:04.051Z,11.78
2018-09-22T02:47:03.974Z,11.74
2018-09-22T02:48:03.898Z,11.68
2018-09-22T02:49:03.816Z,11.71
2018-09-22T02:50:03.737Z,11.75
2018-09-22T02:51:03.660Z,11.75
2018-09-22T02:52:03.580Z,11.83
2018-09-22T02:53:03.502Z,11.78
2018-09-22T02:54:03.429Z,11.69
2018-09-22T02:55:03.346Z,11.60
2018-09-22T02:56:03.267Z,11.59
2018-09-22T02:57:03.187Z,11.64
2018-09-22T02:58:03.160Z,11.69
2018-09-22T02:59:03.031Z,11.74
2018-09-22T03:00:02.953Z,11.69
2018-09-22T03:01:02.872Z,11.67
2018-09-22T03:02:02.794Z,11.76
2018-09-22T03:03:02.717Z,11.72
2018-09-22T03:04:02.738Z,11.78
2018-09-22T03:05:02.562Z,11.81
2018-09-22T03:06:02.482Z,11.74
2018-09-22T03:07:02.403Z,11.75
2018-09-22T03:08:02.326Z,11.79
2018-09-22T03:09:02.247Z,11.79
2018-09-22T03:10:02.523Z,11.75
2018-09-22T03:11:02.091Z,11.72
2018-09-22T03:12:02.014Z,11.71
2018-09-22T03:13:02.024Z,11.75
2018-09-22T03:14:01.855Z,11.75
2018-09-22T03:15:01.776Z,11.71
2018-09-22T03:16:01.699Z,11.69
2018-09-22T03:17:01.623Z,11.72
2018-09-22T03:18:01.542Z,11.67
2018-09-22T03:19:01.466Z,11.72
2018-09-22T03:20:01.392Z,11.74
2018-09-22T03:21:01.309Z,11.76
2018-09-22T03:22:01.228Z,11.76
2018-09-22T03:23:01.150Z,11.81
2018-09-22T03:24:01.073Z,11.75
2018-09-22T03:25:00.992Z,11.72
2018-09-22T03:26:00.914Z,11.71
2018-09-22T03:27:00.837Z,11.68
2018-09-22T03:28:00.758Z,11.68
2018-09-22T03:29:00.679Z,11.69
2018-09-22T03:30:00.601Z,11.68
2018-09-22T03:31:00.523Z,11.60
2018-09-22T03:32:00.447Z,11.72
2018-09-22T03:33:00.365Z,11.78
2018-09-22T03:34:00.288Z,11.65
2018-09-22T03:35:00.210Z,11.72
2018-09-22T03:36:00.138Z,11.65
2018-09-22T03:37:00.054Z,11.67
2018-09-22T03:37:59.975Z,11.79
2018-09-22T03:38:59.897Z,12.00
2018-09-22T03:39:59.819Z,12.02
2018-09-22T03:40:59.739Z,12.06
2018-09-22T03:41:59.661Z,12.08
2018-09-22T03:42:59.582Z,12.02
2018-09-22T03:43:59.505Z,12.02
2018-09-22T03:44:59.425Z,12.08
2018-09-22T03:45:59.347Z,12.06
2018-09-22T03:46:59.270Z,12.11
2018-09-22T03:47:59.193Z,12.06
2018-09-22T03:48:59.113Z,12.00
2018-09-22T03:49:59.038Z,12.02
2018-09-22T03:50:58.960Z,11.97
2018-09-22T03:51:59.181Z,11.93
2018-09-22T03:52:58.798Z,11.94
2018-09-22T03:53:58.722Z,11.87
2018-09-22T03:54:58.645Z,11.94
2018-09-22T03:55:58.564Z,12.03
2018-09-22T03:56:58.485Z,12.00
2018-09-22T03:57:58.408Z,11.98
2018-09-22T03:58:58.330Z,12.13
2018-09-22T03:59:58.251Z,12.11
2018-09-22T04:00:58.174Z,11.95
2018-09-22T04:01:58.395Z,11.98
2018-09-22T04:02:58.016Z,11.97
2018-09-22T04:03:57.939Z,11.95
2018-09-22T04:04:57.858Z,11.97
2018-09-22T04:05:57.781Z,11.93
2018-09-22T04:06:57.705Z,11.94
2018-09-22T04:07:57.624Z,11.86
2018-09-22T04:08:57.546Z,11.76
2018-09-22T04:09:57.466Z,11.78
2018-09-22T04:10:57.388Z,11.84
2018-09-22T04:11:57.310Z,11.65
2018-09-22T04:12:57.237Z,11.74
2018-09-22T04:13:57.155Z,11.68
2018-09-22T04:14:57.075Z,11.68
2018-09-22T04:15:56.997Z,11.68
2018-09-22T04:16:56.919Z,11.68
2018-09-22T04:17:56.841Z,11.67
2018-09-22T04:18:56.765Z,11.64
2018-09-22T04:19:56.684Z,11.65
2018-09-22T04:20:56.606Z,11.57
2018-09-22T04:21:56.527Z,11.67
2018-09-22T04:22:56.448Z,11.59
2018-09-22T04:23:56.371Z,11.57
2018-09-22T04:24:56.291Z,11.54
2018-09-22T04:25:56.213Z,11.51
2018-09-22T04:26:56.136Z,11.51
2018-09-22T04:27:56.057Z,11.60
2018-09-22T04:28:55.977Z,11.54
2018-09-22T04:29:55.900Z,11.56
2018-09-22T04:30:55.821Z,11.53
2018-09-22T04:31:55.744Z,11.54
2018-09-22T04:32:55.663Z,11.60
2018-09-22T04:33:55.587Z,11.53
2018-09-22T04:34:55.511Z,11.56
2018-09-22T04:35:55.431Z,11.64
2018-09-22T04:36:55.351Z,11.71
2018-09-22T04:37:55.273Z,11.71
2018-09-22T04:38:55.195Z,11.74
2018-09-22T04:39:55.116Z,11.71
2018-09-22T04:40:55.037Z,11.69
2018-09-22T04:41:54.961Z,11.57
2018-09-22T04:42:54.881Z,11.39
2018-09-22T04:43:55.054Z,11.38
2018-09-22T04:44:54.722Z,11.38
2018-09-22T04:45:54.645Z,11.36
2018-09-22T04:46:54.567Z,11.46
2018-09-22T04:47:54.487Z,11.50
2018-09-22T04:48:54.408Z,11.46
2018-09-22T04:49:54.331Z,11.50
2018-09-22T04:50:54.252Z,11.39
2018-09-22T04:51:54.173Z,11.41
2018-09-22T04:52:54.094Z,11.51
2018-09-22T04:53:54.017Z,11.54
2018-09-22T04:54:53.938Z,11.57
2018-09-22T04:55:53.860Z,11.57
2018-09-22T04:56:53.783Z,11.59
2018-09-22T04:57:53.702Z,11.57
2018-09-22T04:58:53.624Z,11.56
2018-09-22T04:59:53.994Z,11.54
2018-09-22T05:00:53.466Z,11.41
2018-09-22T05:01:53.389Z,11.36
2018-09-22T05:02:53.309Z,11.34
2018-09-22T05:03:53.232Z,11.34
2018-09-22T05:04:53.151Z,11.38
2018-09-22T05:05:53.073Z,11.38
2018-09-22T05:06:52.994Z,11.42
2018-09-22T05:07:52.916Z,11.39
2018-09-22T05:08:52.837Z,11.38
2018-09-22T05:09:52.759Z,11.35
2018-09-22T05:10:52.681Z,11.39
2018-09-22T05:11:52.602Z,11.39
2018-09-22T05:12:52.522Z,11.31
2018-09-22T05:13:52.447Z,11.34
2018-09-22T05:14:52.367Z,11.28
2018-09-22T05:15:52.289Z,11.17
2018-09-22T05:16:52.210Z,11.18
2018-09-22T05:17:52.130Z,11.21
2018-09-22T05:18:52.053Z,11.20
2018-09-22T05:19:51.973Z,11.18
2018-09-22T05:20:51.894Z,11.06
2018-09-22T05:21:51.815Z,10.96
2018-09-22T05:22:51.737Z,10.93
2018-09-22T05:23:51.659Z,10.96
2018-09-22T05:24:51.695Z,11.05
2018-09-22T05:25:51.506Z,10.95
2018-09-22T05:26:51.425Z,11.06
2018-09-22T05:27:51.345Z,11.00
2018-09-22T05:28:51.268Z,11.16
2018-09-22T05:29:51.186Z,11.23
2018-09-22T05:30:51.109Z,11.39
2018-09-22T05:31:51.030Z,11.46
2018-09-22T05:32:50.951Z,11.47
2018-09-22T05:33:50.871Z,11.56
2018-09-22T05:34:50.796Z,11.57
2018-09-22T05:35:50.715Z,11.54
2018-09-22T05:36:50.636Z,11.53
2018-09-22T05:37:50.558Z,11.59
2018-09-22T05:38:50.479Z,11.60
2018-09-22T05:39:50.401Z,11.54
2018-09-22T05:40:50.322Z,11.67
2018-09-22T05:41:50.363Z,11.68
2018-09-22T05:42:50.165Z,11.69
2018-09-22T05:43:50.087Z,11.61
2018-09-22T05:44:50.008Z,11.67
2018-09-22T05:45:49.973Z,11.68
2018-09-22T05:46:49.851Z,11.57
2018-09-22T05:47:49.773Z,11.56
2018-09-22T05:48:49.943Z,11.56
2018-09-22T05:49:49.615Z,11.59
2018-09-22T05:50:49.538Z,11.65
2018-09-22T05:51:49.459Z,11.71
2018-09-22T05:52:49.379Z,11.69
2018-09-22T05:53:49.304Z,11.68
2018-09-22T05:54:49.224Z,11.79
2018-09-22T05:55:49.146Z,11.86
2018-09-22T05:56:49.067Z,11.76
2018-09-22T05:57:48.988Z,11.74
2018-09-22T05:58:48.910Z,11.69
2018-09-22T05:59:48.832Z,11.69
2018-09-22T06:00:48.753Z,11.64
2018-09-22T06:01:48.681Z,11.67
2018-09-22T06:02:48.597Z,11.65
2018-09-22T06:03:48.664Z,11.65
2018-09-22T06:04:48.438Z,11.74
2018-09-22T06:05:48.361Z,11.72
2018-09-22T06:06:48.282Z,11.78
2018-09-22T06:07:48.205Z,11.81
2018-09-22T06:08:48.124Z,11.84
2018-09-22T06:09:48.046Z,11.83
2018-09-22T06:10:47.969Z,11.86
2018-09-22T06:11:47.891Z,11.76
2018-09-22T06:12:47.812Z,11.90
2018-09-22T06:13:47.735Z,11.86
2018-09-22T06:14:47.656Z,11.97
2018-09-22T06:15:47.577Z,11.90
2018-09-22T06:16:47.498Z,11.94
2018-09-22T06:17:47.421Z,11.95
2018-09-22T06:18:47.342Z,12.02
2018-09-22T06:19:47.264Z,11.93
2018-09-22T06:20:47.185Z,12.05
2018-09-22T06:21:47.108Z,11.98
2018-09-22T06:22:47.029Z,12.02
2018-09-22T06:23:46.950Z,12.00
2018-09-22T06:24:46.872Z,12.03
2018-09-22T06:25:46.794Z,12.05
2018-09-22T06:26:46.715Z,12.09
2018-09-22T06:27:46.638Z,12.08
2018-09-22T06:28:46.664Z,12.13
2018-09-22T06:29:46.481Z,12.19
2018-09-22T06:30:46.403Z,12.18
2018-09-22T06:31:46.325Z,12.24
2018-09-22T06:32:46.247Z,12.18
2018-09-22T06:33:46.168Z,12.24
2018-09-22T06:34:46.090Z,12.36
2018-09-22T06:35:46.013Z,12.26
2018-09-22T06:36:45.934Z,12.28
2018-09-22T06:37:45.856Z,12.28
2018-09-22T06:38:45.780Z,12.26
2018-09-22T06:39:45.703Z,12.36
2018-09-22T06:40:45.624Z,12.33
2018-09-22T06:41:45.545Z,12.33
2018-09-22T06:42:45.467Z,12.44
2018-09-22T06:43:45.390Z,12.42
2018-09-22T06:44:45.312Z,12.48
2018-09-22T06:45:45.233Z,12.41
2018-09-22T06:46:45.158Z,12.45
2018-09-22T06:47:45.080Z,12.51
2018-09-22T06:48:45.000Z,12.46
2018-09-22T06:49:44.922Z,12.49
2018-09-22T06:50:44.846Z,12.48
2018-09-22T06:51:44.767Z,12.45
2018-09-22T06:52:44.689Z,12.49
2018-09-22T06:53:44.610Z,12.44
2018-09-22T06:54:44.580Z,12.52
2018-09-22T06:55:44.457Z,12.51
2018-09-22T06:56:44.379Z,12.52
2018-09-22T06:57:44.301Z,12.53
2018-09-22T06:58:44.225Z,12.61
2018-09-22T06:59:44.147Z,12.60
2018-09-22T07:00:44.068Z,12.56
2018-09-22T07:01:43.991Z,12.55
2018-09-22T07:02:43.914Z,12.63
2018-09-22T07:03:43.836Z,12.71
2018-09-22T07:04:43.758Z,12.73
2018-09-22T07:05:43.680Z,12.67
2018-09-22T07:06:43.603Z,12.78
2018-09-22T07:07:43.526Z,12.78
2018-09-22T07:08:43.452Z,12.67
2018-09-22T07:09:43.374Z,12.64
2018-09-22T07:10:43.293Z,12.71
2018-09-22T07:11:43.217Z,12.60
2018-09-22T07:12:43.138Z,12.67
2018-09-22T07:13:43.127Z,12.67
2018-09-22T07:14:42.985Z,12.71
2018-09-22T07:15:42.906Z,12.84
2018-09-22T07:16:42.829Z,12.88
2018-09-22T07:17:42.751Z,12.96
2018-09-22T07:18:42.674Z,13.00
2018-09-22T07:19:42.598Z,12.92
2018-09-22T07:20:42.569Z,12.92
2018-09-22T07:21:42.443Z,13.00
2018-09-22T07:22:42.366Z,12.94
2018-09-22T07:23:42.289Z,13.02
2018-09-22T07:24:42.211Z,13.02
2018-09-22T07:25:42.134Z,13.00
2018-09-22T07:26:42.058Z,12.86
2018-09-22T07:27:41.982Z,12.91
2018-09-22T07:28:41.904Z,12.89
2018-09-22T07:29:41.826Z,13.00
2018-09-22T07:30:41.781Z,13.07
2018-09-22T07:31:41.673Z,13.10
2018-09-22T07:32:41.595Z,13.10
2018-09-22T07:33:41.518Z,13.03
2018-09-22T07:34:41.441Z,13.09
2018-09-22T07:35:41.364Z,13.14
2018-09-22T07:36:41.286Z,13.14
2018-09-22T07:37:41.210Z,13.18
2018-09-22T07:38:41.133Z,13.27
2018-09-22T07:39:41.058Z,13.24
2018-09-22T07:40:40.981Z,13.24
2018-09-22T07:41:40.953Z,13.27
2018-09-22T07:42:40.826Z,13.24
2018-09-22T07:43:40.750Z,13.21
2018-09-22T07:44:40.672Z,13.25
2018-09-22T07:45:40.623Z,13.41
2018-09-22T07:46:40.668Z,13.28
2018-09-22T07:47:40.445Z,13.40
2018-09-22T07:48:40.365Z,13.40
2018-09-22T07:49:40.289Z,13.40
2018-09-22T07:50:40.212Z,13.43
2018-09-22T07:51:40.186Z,13.29
2018-09-22T07:52:40.059Z,13.25
2018-09-22T07:53:39.981Z,13.33
2018-09-22T07:54:39.907Z,13.45
2018-09-22T07:55:39.829Z,13.53
2018-09-22T07:56:39.751Z,13.68
2018-09-22T07:57:39.676Z,13.68
2018-09-22T07:58:39.599Z,13.63
2018-09-22T07:59:39.524Z,13.53
2018-09-22T08:00:39.450Z,13.44
2018-09-22T08:01:39.371Z,13.45
2018-09-22T08:02:39.293Z,13.37
2018-09-22T08:03:39.218Z,13.41
2018-09-22T08:04:39.158Z,13.59
2018-09-22T08:05:39.063Z,13.66
2018-09-22T08:06:38.990Z,13.86
2018-09-22T08:07:38.912Z,13.84
2018-09-22T08:08:38.835Z,13.98
2018-09-22T08:09:38.758Z,13.84
2018-09-22T08:10:38.681Z,13.83
2018-09-22T08:11:38.672Z,13.86
2018-09-22T08:12:38.530Z,13.84
2018-09-22T08:13:38.454Z,13.94
2018-09-22T08:14:38.388Z,14.03
2018-09-22T08:15:38.303Z,14.13
2018-09-22T08:16:38.229Z,14.13
2018-09-22T08:17:38.149Z,14.11
2018-09-22T08:18:38.076Z,13.92
2018-09-22T08:19:37.998Z,14.02
2018-09-22T08:20:37.920Z,14.10
2018-09-22T08:21:37.895Z,14.09
2018-09-22T08:22:37.769Z,14.19
2018-09-22T08:23:37.693Z,14.27
2018-09-22T08:24:37.617Z,14.31
2018-09-22T08:25:37.541Z,14.29
2018-09-22T08:26:37.465Z,14.27
2018-09-22T08:27:37.389Z,14.29
2018-09-22T08:28:37.314Z,14.34
2018-09-22T08:29:37.240Z,14.35
2018-09-22T08:30:37.162Z,14.24
2018-09-22T08:31:37.088Z,14.35
2018-09-22T08:32:37.010Z,14.32
2018-09-22T08:33:36.934Z,14.21
2018-09-22T08:34:36.861Z,14.24
2018-09-22T08:35:36.787Z,14.16
2018-09-22T08:36:36.963Z,14.17
2018-09-22T08:37:36.632Z,14.19
2018-09-22T08:38:36.555Z,14.24
2018-09-22T08:39:36.484Z,14.23
2018-09-22T08:40:36.403Z,14.23
2018-09-22T08:41:36.329Z,14.35
2018-09-22T08:42:36.253Z,14.41
2018-09-22T08:43:36.177Z,14.42
2018-09-22T08:44:36.101Z,14.42
2018-09-22T08:45:36.027Z,14.41
2018-09-22T08:46:35.950Z,14.56
2018-09-22T08:47:35.874Z,14.61
2018-09-22T08:48:35.799Z,14.78
2018-09-22T08:49:35.783Z,14.64
2018-09-22T08:50:35.647Z,14.57
2018-09-22T08:51:35.573Z,14.59
2018-09-22T08:52:35.496Z,14.69
2018-09-22T08:53:35.421Z,14.79
2018-09-22T08:54:35.344Z,14.71
2018-09-22T08:55:35.270Z,14.75
2018-09-22T08:56:35.193Z,14.80
2018-09-22T08:57:35.119Z,14.68
2018-09-22T08:58:35.044Z,14.71
2018-09-22T08:59:34.968Z,14.80
2018-09-22T09:00:34.936Z,14.87
2018-09-22T09:01:34.817Z,14.93
2018-09-22T09:02:34.742Z,14.97
2018-09-22T09:03:34.665Z,14.91
2018-09-22T09:04:34.589Z,14.98
2018-09-22T09:05:34.514Z,14.85
2018-09-22T09:06:34.694Z,14.85
2018-09-22T09:07:34.364Z,14.94
2018-09-22T09:08:34.287Z,14.88
2018-09-22T09:09:34.213Z,14.91
2018-09-22T09:10:34.138Z,14.94
2018-09-22T09:11:34.148Z,14.98
2018-09-22T09:12:33.987Z,14.87
2018-09-22T09:13:33.949Z,14.95
2018-09-22T09:14:33.860Z,15.12
2018-09-22T09:15:33.762Z,15.16
2018-09-22T09:16:33.686Z,15.08
2018-09-22T09:17:33.613Z,15.27
2018-09-22T09:18:33.535Z,15.38
2018-09-22T09:19:33.461Z,15.39
2018-09-22T09:20:33.384Z,15.57
2018-09-22T09:21:33.309Z,15.66
2018-09-22T09:22:33.233Z,15.71
2018-09-22T09:23:33.159Z,15.67
2018-09-22T09:24:33.083Z,15.73
2018-09-22T09:25:33.010Z,15.88
2018-09-22T09:26:32.933Z,15.79
2018-09-22T09:27:32.918Z,15.85
2018-09-22T09:28:33.033Z,15.59
2018-09-22T09:29:32.708Z,15.55
2018-09-22T09:30:32.636Z,15.67
2018-09-22T09:31:32.561Z,15.68
2018-09-22T09:32:32.483Z,15.63
2018-09-22T09:33:32.409Z,15.61
2018-09-22T09:34:32.334Z,15.49
2018-09-22T09:35:32.260Z,15.61
2018-09-22T09:36:32.187Z,15.67
2018-09-22T09:37:32.111Z,15.83
2018-09-22T09:38:32.036Z,16.01
2018-09-22T09:39:31.961Z,16.00
2018-09-22T09:40:31.886Z,16.03
2018-09-22T09:41:31.811Z,16.01
2018-09-22T09:42:31.738Z,16.07
2018-09-22T09:43:31.746Z,16.10
2018-09-22T09:44:31.591Z,16.01
2018-09-22T09:45:31.517Z,16.04
2018-09-22T09:46:31.439Z,16.06
2018-09-22T09:47:31.405Z,16.00
2018-09-22T09:48:31.291Z,15.86
2018-09-22T09:49:31.215Z,15.85
2018-09-22T09:50:31.141Z,15.86
2018-09-22T09:51:31.069Z,15.86
2018-09-22T09:52:30.992Z,15.82
2018-09-22T09:53:30.917Z,15.79
2018-09-22T09:54:30.857Z,15.71
2018-09-22T09:55:30.775Z,15.64
2018-09-22T09:56:30.693Z,15.78
2018-09-22T09:57:30.619Z,15.81
2018-09-22T09:58:30.544Z,15.83
2018-09-22T09:59:30.471Z,15.71
2018-09-22T10:00:30.395Z,15.82
2018-09-22T10:01:30.321Z,16.00
2018-09-22T10:02:30.246Z,16.26
2018-09-22T10:03:30.172Z,16.14
2018-09-22T10:04:30.152Z,16.18
2018-09-22T10:05:30.021Z,16.26
2018-09-22T10:06:29.947Z,16.20
2018-09-22T10:07:29.872Z,16.29
2018-09-22T10:08:29.798Z,16.48
2018-09-22T10:09:29.723Z,16.60
2018-09-22T10:10:29.654Z,16.59
2018-09-22T10:11:29.575Z,16.60
2018-09-22T10:12:29.499Z,16.67
2018-09-22T10:13:29.424Z,16.60
2018-09-22T10:14:29.351Z,16.62
2018-09-22T10:15:29.277Z,16.70
2018-09-22T10:16:29.201Z,16.85
2018-09-22T10:17:29.127Z,17.10
2018-09-22T10:18:29.052Z,17.00
2018-09-22T10:19:28.979Z,16.93
2018-09-22T10:20:28.904Z,17.03
2018-09-22T10:21:28.831Z,17.17
2018-09-22T10:22:28.757Z,17.17
2018-09-22T10:23:28.782Z,17.21
2018-09-22T10:24:28.609Z,17.29
2018-09-22T10:25:28.534Z,17.40
2018-09-22T10:26:28.462Z,17.33
2018-09-22T10:27:28.387Z,17.17
2018-09-22T10:28:28.358Z,17.38
2018-09-22T10:29:28.290Z,17.50
2018-09-22T10:30:28.167Z,17.40
2018-09-22T10:31:28.094Z,17.46
2018-09-22T10:32:28.019Z,17.15
2018-09-22T10:33:27.946Z,17.20
2018-09-22T10:34:27.872Z,17.18
2018-09-22T10:35:27.799Z,17.26
2018-09-22T10:36:27.725Z,17.20
2018-09-22T10:37:27.652Z,17.28
2018-09-22T10:38:27.580Z,17.32
2018-09-22T10:39:27.506Z,17.48
2018-09-22T10:40:27.431Z,17.28
2018-09-22T10:41:27.359Z,17.28
2018-09-22T10:42:27.289Z,17.08
2018-09-22T10:43:27.213Z,17.28
2018-09-22T10:44:27.140Z,17.44
2018-09-22T10:45:27.066Z,17.50
2018-09-22T10:46:26.994Z,17.70
2018-09-22T10:47:26.920Z,17.79
2018-09-22T10:48:26.847Z,18.02
2018-09-22T10:49:26.774Z,18.10
2018-09-22T10:50:26.702Z,18.25
2018-09-22T10:51:26.628Z,18.35
2018-09-22T10:52:26.583Z,17.70
2018-09-22T10:53:26.483Z,17.94
2018-09-22T10:54:26.410Z,17.82
2018-09-22T10:55:26.338Z,17.94
2018-09-22T10:56:26.264Z,18.19
2018-09-22T10:57:26.192Z,18.27
2018-09-22T10:58:26.122Z,18.50
2018-09-22T10:59:26.046Z,18.65
2018-09-22T11:00:25.973Z,18.64
2018-09-22T11:01:25.905Z,18.52
2018-09-22T11:02:25.828Z,18.34
2018-09-22T11:03:25.837Z,18.14
2018-09-22T11:04:25.682Z,17.91
2018-09-22T11:05:25.611Z,17.87
2018-09-22T11:06:25.590Z,17.69
2018-09-22T11:07:25.469Z,17.71
2018-09-22T11:08:25.393Z,17.66
2018-09-22T11:09:25.322Z,17.95
2018-09-22T11:10:25.250Z,18.03
2018-09-22T11:11:25.246Z,17.94
2018-09-22T11:12:25.106Z,17.92
2018-09-22T11:13:25.033Z,17.96
2018-09-22T11:14:24.962Z,18.16
2018-09-22T11:15:24.890Z,18.21
2018-09-22T11:16:24.817Z,18.18
2018-09-22T11:17:24.745Z,18.25
2018-09-22T11:18:24.675Z,18.49
2018-09-22T11:19:24.599Z,18.42
2018-09-22T11:20:24.627Z,18.47
2018-09-22T11:21:24.455Z,18.90
2018-09-22T11:22:24.383Z,18.99
2018-09-22T11:23:24.312Z,19.14
2018-09-22T11:24:24.240Z,19.27
2018-09-22T11:25:24.219Z,19.02
2018-09-22T11:26:24.097Z,18.68
2018-09-22T11:27:24.028Z,18.69
2018-09-22T11:28:23.953Z,18.61
2018-09-22T11:29:23.882Z,18.47
2018-09-22T11:30:23.812Z,18.55
2018-09-22T11:31:23.738Z,18.27
2018-09-22T11:32:23.668Z,18.29
2018-09-22T11:33:23.596Z,18.37
2018-09-22T11:34:23.525Z,18.24
2018-09-22T11:35:23.453Z,18.25
2018-09-22T11:36:23.430Z,18.40
2018-09-22T11:37:23.308Z,18.40
2018-09-22T11:38:23.258Z,18.40
2018-09-22T11:39:23.166Z,18.49
2018-09-22T11:40:23.094Z,18.43
2018-09-22T11:41:23.026Z,18.46
2018-09-22T11:42:22.951Z,18.42
2018-09-22T11:43:22.880Z,18.44
2018-09-22T11:44:22.809Z,18.40
2018-09-22T11:45:22.736Z,18.53
2018-09-22T11:46:22.727Z,18.80
2018-09-22T11:47:22.594Z,18.77
2018-09-22T11:48:22.522Z,18.87
2018-09-22T11:49:22.449Z,19.11
2018-09-22T11:50:22.378Z,19.42
2018-09-22T11:51:22.307Z,19.71
2018-09-22T11:52:22.236Z,19.75
2018-09-22T11:53:22.165Z,19.69
2018-09-22T11:54:22.092Z,19.39
2018-09-22T11:55:22.023Z,19.14
2018-09-22T11:56:21.957Z,19.05
2018-09-22T11:57:21.879Z,18.95
2018-09-22T11:58:21.810Z,18.92
2018-09-22T11:59:21.739Z,18.99
2018-09-22T12:00:21.665Z,19.32
2018-09-22T12:01:21.595Z,19.25
2018-09-22T12:02:21.525Z,19.08
2018-09-22T12:03:21.454Z,18.94
2018-09-22T12:04:21.381Z,18.94
2018-09-22T12:05:21.310Z,18.98
2018-09-22T12:06:21.271Z,18.89
2018-09-22T12:07:21.170Z,18.95
2018-09-22T12:08:21.099Z,18.90
2018-09-22T12:09:21.028Z,18.80
2018-09-22T12:10:20.955Z,18.79
2018-09-22T12:11:20.887Z,18.94
2018-09-22T12:12:20.814Z,18.95
2018-09-22T12:13:20.742Z,19.01
2018-09-22T12:14:20.671Z,18.97
2018-09-22T12:15:20.601Z,18.89
2018-09-22T12:16:20.528Z,18.97
2018-09-22T12:17:20.507Z,18.95
2018-09-22T12:18:20.388Z,18.92
2018-09-22T12:19:20.322Z,19.05
2018-09-22T12:20:20.243Z,19.02
2018-09-22T12:21:20.212Z,19.27
2018-09-22T12:22:20.107Z,19.32
2018-09-22T12:23:20.035Z,19.13
2018-09-22T12:24:19.958Z,19.11
2018-09-22T12:25:19.885Z,19.40
2018-09-22T12:26:19.815Z,18.98
2018-09-22T12:27:19.744Z,19.09
2018-09-22T12:28:19.672Z,19.28
2018-09-22T12:29:19.601Z,19.15
2018-09-22T12:30:19.530Z,19.14
2018-09-22T12:31:19.458Z,19.06
2018-09-22T12:32:19.387Z,19.15
2018-09-22T12:33:19.316Z,19.09
2018-09-22T12:34:19.245Z,19.01
2018-09-22T12:35:19.173Z,19.14
2018-09-22T12:36:19.101Z,19.13
2018-09-22T12:37:19.031Z,19.11
2018-09-22T12:38:18.960Z,19.14
2018-09-22T12:39:18.888Z,19.24
2018-09-22T12:40:18.818Z,19.46
2018-09-22T12:41:18.745Z,19.25
2018-09-22T12:42:18.675Z,19.23
2018-09-22T12:43:18.606Z,19.31
2018-09-22T12:44:18.532Z,19.36
2018-09-22T12:45:18.461Z,19.25
2018-09-22T12:46:18.389Z,19.40
2018-09-22T12:47:18.318Z,19.43
2018-09-22T12:48:18.246Z,19.61
2018-09-22T12:49:18.176Z,19.69
2018-09-22T12:50:18.105Z,19.63
2018-09-22T12:51:18.034Z,20.00